sensor_id;sensor_type;location;lat;lon;timestamp;pressure;altitude;pressure_sealevel;temperature;humidity
46087;BME280;31824;49.648;8.640;2023-05-22T00:00:33;99871.78;;;16.40;100.00
46087;BME280;31824;49.648;8.640;2023-05-22T00:03:36;99869.94;;;16.38;100.00
46087;BME280;31824;49.648;8.640;2023-05-22T00:06:41;99871.91;;;16.28;100.00
46087;BME280;31824;49.648;8.640;2023-05-22T00:09:44;99871.91;;;16.28;100.00
46087;BME280;31824;49.648;8.640;2023-05-22T00:12:47;99870.94;;;16.12;100.00
46087;BME280;31824;49.648;8.640;2023-05-22T00:15:49;99874.63;;;16.14;100.00
46087;BME280;31824;49.648;8.640;2023-05-22T00:18:51;99869.41;;;16.16;100.00
46087;BME280;31824;49.648;8.640;2023-05-22T00:21:53;99864.63;;;15.97;100.00
46087;BME280;31824;49.648;8.640;2023-05-22T00:24:56;99865.72;;;16.14;100.00
46087;BME280;31824;49.648;8.640;2023-05-22T00:27:58;99866.25;;;16.08;100.00
46087;BME280;31824;49.648;8.640;2023-05-22T00:31:00;99867.66;;;16.03;100.00
46087;BME280;31824;49.648;8.640;2023-05-22T00:34:03;99862.09;;;15.85;100.00
46087;BME280;31824;49.648;8.640;2023-05-22T00:37:05;99867.69;;;15.76;100.00
46087;BME280;31824;49.648;8.640;2023-05-22T00:40:10;99864.59;;;15.70;100.00
46087;BME280;31824;49.648;8.640;2023-05-22T00:43:13;99862.06;;;15.58;100.00
46087;BME280;31824;49.648;8.640;2023-05-22T00:46:18;99860.44;;;15.60;100.00
46087;BME280;31824;49.648;8.640;2023-05-22T00:49:22;99853.41;;;15.61;100.00
46087;BME280;31824;49.648;8.640;2023-05-22T00:52:24;99853.59;;;15.64;100.00
46087;BME280;31824;49.648;8.640;2023-05-22T00:55:27;99861.44;;;15.76;100.00
46087;BME280;31824;49.648;8.640;2023-05-22T00:58:30;99863.50;;;15.93;100.00
46087;BME280;31824;49.648;8.640;2023-05-22T01:01:32;99856.84;;;16.27;100.00
46087;BME280;31824;49.648;8.640;2023-05-22T01:04:37;99857.91;;;16.02;100.00
46087;BME280;31824;49.648;8.640;2023-05-22T01:07:39;99861.38;;;16.01;100.00
46087;BME280;31824;49.648;8.640;2023-05-22T01:10:43;99856.34;;;16.19;100.00
46087;BME280;31824;49.648;8.640;2023-05-22T01:13:54;99853.78;;;16.20;100.00
46087;BME280;31824;49.648;8.640;2023-05-22T01:17:02;99864.72;;;16.12;100.00
46087;BME280;31824;49.648;8.640;2023-05-22T01:20:16;99856.28;;;16.04;100.00
46087;BME280;31824;49.648;8.640;2023-05-22T01:27:13;99851.06;;;15.65;100.00
46087;BME280;31824;49.648;8.640;2023-05-22T01:30:38;99856.75;;;15.58;100.00
46087;BME280;31824;49.648;8.640;2023-05-22T01:33:48;99854.81;;;15.56;100.00
46087;BME280;31824;49.648;8.640;2023-05-22T01:36:52;99870.50;;;15.52;100.00
46087;BME280;31824;49.648;8.640;2023-05-22T01:39:56;99861.94;;;15.57;100.00
46087;BME280;31824;49.648;8.640;2023-05-22T01:42:59;99872.72;;;15.33;100.00
46087;BME280;31824;49.648;8.640;2023-05-22T01:46:03;99882.38;;;15.32;100.00
46087;BME280;31824;49.648;8.640;2023-05-22T01:49:06;99875.88;;;15.27;100.00
46087;BME280;31824;49.648;8.640;2023-05-22T01:52:13;99875.25;;;15.18;100.00
46087;BME280;31824;49.648;8.640;2023-05-22T01:55:21;99881.13;;;15.14;100.00
46087;BME280;31824;49.648;8.640;2023-05-22T01:58:31;99877.75;;;15.03;100.00
46087;BME280;31824;49.648;8.640;2023-05-22T02:01:36;99878.72;;;14.92;100.00
46087;BME280;31824;49.648;8.640;2023-05-22T02:04:43;99881.03;;;14.87;100.00
46087;BME280;31824;49.648;8.640;2023-05-22T02:07:50;99881.03;;;14.87;100.00
46087;BME280;31824;49.648;8.640;2023-05-22T02:10:54;99887.69;;;14.94;100.00
46087;BME280;31824;49.648;8.640;2023-05-22T02:13:56;99881.84;;;14.86;100.00
46087;BME280;31824;49.648;8.640;2023-05-22T02:17:00;99872.66;;;14.81;100.00
46087;BME280;31824;49.648;8.640;2023-05-22T02:20:05;99866.47;;;14.80;100.00
46087;BME280;31824;49.648;8.640;2023-05-22T02:23:13;99879.69;;;14.80;100.00
46087;BME280;31824;49.648;8.640;2023-05-22T02:26:14;99876.94;;;14.79;100.00
46087;BME280;31824;49.648;8.640;2023-05-22T02:29:17;99873.06;;;14.74;100.00
46087;BME280;31824;49.648;8.640;2023-05-22T02:32:20;99874.41;;;14.80;100.00
46087;BME280;31824;49.648;8.640;2023-05-22T02:35:23;99877.75;;;14.78;100.00
46087;BME280;31824;49.648;8.640;2023-05-22T02:38:26;99868.59;;;14.61;100.00
46087;BME280;31824;49.648;8.640;2023-05-22T02:41:28;99875.88;;;14.63;100.00
46087;BME280;31824;49.648;8.640;2023-05-22T02:44:31;99884.84;;;14.91;100.00
46087;BME280;31824;49.648;8.640;2023-05-22T02:47:34;99882.88;;;14.88;100.00
46087;BME280;31824;49.648;8.640;2023-05-22T02:50:36;99886.22;;;14.85;100.00
46087;BME280;31824;49.648;8.640;2023-05-22T02:53:39;99883.13;;;14.79;100.00
46087;BME280;31824;49.648;8.640;2023-05-22T02:56:41;99888.00;;;14.61;100.00
46087;BME280;31824;49.648;8.640;2023-05-22T02:59:44;99889.66;;;14.59;100.00
46087;BME280;31824;49.648;8.640;2023-05-22T03:02:48;99890.56;;;14.60;100.00
46087;BME280;31824;49.648;8.640;2023-05-22T03:05:50;99893.09;;;14.58;100.00
46087;BME280;31824;49.648;8.640;2023-05-22T03:08:54;99889.69;;;14.35;100.00
46087;BME280;31824;49.648;8.640;2023-05-22T03:11:57;99893.63;;;14.29;100.00
46087;BME280;31824;49.648;8.640;2023-05-22T03:14:59;99890.50;;;14.34;100.00
46087;BME280;31824;49.648;8.640;2023-05-22T03:18:07;99892.25;;;14.34;100.00
46087;BME280;31824;49.648;8.640;2023-05-22T03:21:09;99901.75;;;14.32;100.00
46087;BME280;31824;49.648;8.640;2023-05-22T03:24:11;99889.28;;;14.29;100.00
46087;BME280;31824;49.648;8.640;2023-05-22T03:27:14;99887.91;;;14.23;100.00
46087;BME280;31824;49.648;8.640;2023-05-22T03:30:17;99891.78;;;14.28;100.00
46087;BME280;31824;49.648;8.640;2023-05-22T03:33:31;99894.41;;;14.28;100.00
46087;BME280;31824;49.648;8.640;2023-05-22T03:36:33;99899.31;;;14.47;100.00
46087;BME280;31824;49.648;8.640;2023-05-22T03:39:35;99904.78;;;14.62;100.00
46087;BME280;31824;49.648;8.640;2023-05-22T03:42:47;99904.50;;;14.45;100.00
46087;BME280;31824;49.648;8.640;2023-05-22T03:45:51;99907.25;;;14.47;100.00
46087;BME280;31824;49.648;8.640;2023-05-22T03:48:54;99899.50;;;14.62;100.00
46087;BME280;31824;49.648;8.640;2023-05-22T03:51:58;99904.34;;;14.56;100.00
46087;BME280;31824;49.648;8.640;2023-05-22T03:55:00;99902.41;;;14.65;100.00
46087;BME280;31824;49.648;8.640;2023-05-22T03:58:02;99913.78;;;14.64;100.00
46087;BME280;31824;49.648;8.640;2023-05-22T04:01:04;99913.34;;;14.46;100.00
46087;BME280;31824;49.648;8.640;2023-05-22T04:04:07;99909.94;;;14.35;100.00
46087;BME280;31824;49.648;8.640;2023-05-22T04:07:10;99916.13;;;14.35;100.00
46087;BME280;31824;49.648;8.640;2023-05-22T04:10:14;99923.16;;;14.35;100.00
46087;BME280;31824;49.648;8.640;2023-05-22T04:13:17;99920.94;;;14.41;100.00
46087;BME280;31824;49.648;8.640;2023-05-22T04:16:19;99920.03;;;14.41;100.00
46087;BME280;31824;49.648;8.640;2023-05-22T04:19:23;99929.69;;;14.40;100.00
46087;BME280;31824;49.648;8.640;2023-05-22T04:22:25;99931.41;;;14.40;100.00
46087;BME280;31824;49.648;8.640;2023-05-22T04:25:28;99932.34;;;14.28;100.00
46087;BME280;31824;49.648;8.640;2023-05-22T04:28:30;99936.69;;;14.40;100.00
46087;BME280;31824;49.648;8.640;2023-05-22T04:31:33;99944.25;;;14.47;100.00
46087;BME280;31824;49.648;8.640;2023-05-22T04:34:39;99932.56;;;14.43;100.00
46087;BME280;31824;49.648;8.640;2023-05-22T04:37:43;99943.44;;;14.48;100.00
46087;BME280;31824;49.648;8.640;2023-05-22T04:40:46;99944.50;;;14.50;100.00
46087;BME280;31824;49.648;8.640;2023-05-22T04:43:48;99951.13;;;14.57;100.00
46087;BME280;31824;49.648;8.640;2023-05-22T04:46:52;99946.88;;;14.71;100.00
46087;BME280;31824;49.648;8.640;2023-05-22T04:49:55;99944.13;;;14.94;100.00
46087;BME280;31824;49.648;8.640;2023-05-22T04:52:58;99936.66;;;15.00;100.00
46087;BME280;31824;49.648;8.640;2023-05-22T04:56:05;99939.84;;;15.22;100.00
46087;BME280;31824;49.648;8.640;2023-05-22T04:59:08;99938.16;;;15.22;100.00
46087;BME280;31824;49.648;8.640;2023-05-22T05:02:12;99948.41;;;15.17;100.00
46087;BME280;31824;49.648;8.640;2023-05-22T05:05:15;99941.31;;;15.30;100.00
46087;BME280;31824;49.648;8.640;2023-05-22T05:08:17;99936.75;;;15.41;100.00
46087;BME280;31824;49.648;8.640;2023-05-22T05:11:19;99945.47;;;15.65;100.00
46087;BME280;31824;49.648;8.640;2023-05-22T05:14:22;99940.06;;;15.63;100.00
46087;BME280;31824;49.648;8.640;2023-05-22T05:17:24;99938.31;;;15.64;100.00
46087;BME280;31824;49.648;8.640;2023-05-22T05:20:28;99942.63;;;15.75;100.00
46087;BME280;31824;49.648;8.640;2023-05-22T05:23:31;99946.16;;;15.88;100.00
46087;BME280;31824;49.648;8.640;2023-05-22T05:26:33;99945.72;;;15.95;100.00
46087;BME280;31824;49.648;8.640;2023-05-22T05:29:34;99937.97;;;16.11;100.00
46087;BME280;31824;49.648;8.640;2023-05-22T05:32:44;99940.03;;;16.15;100.00
46087;BME280;31824;49.648;8.640;2023-05-22T05:35:59;99935.94;;;16.07;100.00
46087;BME280;31824;49.648;8.640;2023-05-22T05:39:02;99944.94;;;16.09;100.00
46087;BME280;31824;49.648;8.640;2023-05-22T05:42:07;99941.66;;;16.40;100.00
46087;BME280;31824;49.648;8.640;2023-05-22T05:45:10;99946.63;;;16.49;100.00
46087;BME280;31824;49.648;8.640;2023-05-22T05:48:12;99948.94;;;16.58;100.00
46087;BME280;31824;49.648;8.640;2023-05-22T05:51:19;99953.31;;;16.70;100.00
46087;BME280;31824;49.648;8.640;2023-05-22T05:54:21;99951.72;;;16.87;100.00
46087;BME280;31824;49.648;8.640;2023-05-22T05:57:28;99949.91;;;17.00;100.00
46087;BME280;31824;49.648;8.640;2023-05-22T06:00:31;99948.13;;;17.00;100.00
46087;BME280;31824;49.648;8.640;2023-05-22T06:03:33;99957.59;;;17.10;100.00
46087;BME280;31824;49.648;8.640;2023-05-22T06:06:49;99962.56;;;17.19;100.00
46087;BME280;31824;49.648;8.640;2023-05-22T06:09:52;99957.53;;;17.24;100.00
46087;BME280;31824;49.648;8.640;2023-05-22T06:13:01;99958.97;;;17.18;100.00
46087;BME280;31824;49.648;8.640;2023-05-22T06:16:04;99957.91;;;17.30;100.00
46087;BME280;31824;49.648;8.640;2023-05-22T06:19:08;99962.97;;;17.55;100.00
46087;BME280;31824;49.648;8.640;2023-05-22T06:22:11;99959.53;;;17.86;100.00
46087;BME280;31824;49.648;8.640;2023-05-22T06:25:16;99959.63;;;18.02;100.00
46087;BME280;31824;49.648;8.640;2023-05-22T06:28:18;99958.78;;;18.18;100.00
46087;BME280;31824;49.648;8.640;2023-05-22T06:31:21;99960.84;;;18.39;100.00
46087;BME280;31824;49.648;8.640;2023-05-22T06:34:24;99961.78;;;18.56;100.00
46087;BME280;31824;49.648;8.640;2023-05-22T06:37:33;99957.31;;;18.55;100.00
46087;BME280;31824;49.648;8.640;2023-05-22T06:40:36;99955.94;;;18.78;100.00
46087;BME280;31824;49.648;8.640;2023-05-22T06:43:54;99953.72;;;19.02;100.00
46087;BME280;31824;49.648;8.640;2023-05-22T06:47:02;99958.59;;;19.10;100.00
46087;BME280;31824;49.648;8.640;2023-05-22T06:50:05;99960.16;;;19.22;100.00
46087;BME280;31824;49.648;8.640;2023-05-22T06:53:09;99957.38;;;19.37;100.00
46087;BME280;31824;49.648;8.640;2023-05-22T06:56:11;99955.38;;;19.50;100.00
46087;BME280;31824;49.648;8.640;2023-05-22T06:59:25;99963.75;;;19.74;100.00
46087;BME280;31824;49.648;8.640;2023-05-22T07:02:56;99961.81;;;19.88;100.00
46087;BME280;31824;49.648;8.640;2023-05-22T07:06:03;99970.13;;;19.94;100.00
46087;BME280;31824;49.648;8.640;2023-05-22T07:09:08;99972.41;;;20.04;100.00
46087;BME280;31824;49.648;8.640;2023-05-22T07:12:12;99972.81;;;20.12;100.00
46087;BME280;31824;49.648;8.640;2023-05-22T07:15:14;99969.94;;;20.26;100.00
46087;BME280;31824;49.648;8.640;2023-05-22T07:18:21;99974.28;;;20.41;100.00
46087;BME280;31824;49.648;8.640;2023-05-22T07:21:24;99986.06;;;20.29;100.00
46087;BME280;31824;49.648;8.640;2023-05-22T07:24:28;99982.72;;;20.15;100.00
46087;BME280;31824;49.648;8.640;2023-05-22T07:27:30;99981.34;;;20.41;100.00
46087;BME280;31824;49.648;8.640;2023-05-22T07:30:35;99983.09;;;20.58;100.00
46087;BME280;31824;49.648;8.640;2023-05-22T07:33:39;99986.25;;;20.32;100.00
46087;BME280;31824;49.648;8.640;2023-05-22T07:36:41;99983.56;;;20.50;100.00
46087;BME280;31824;49.648;8.640;2023-05-22T07:39:44;99994.31;;;20.51;100.00
46087;BME280;31824;49.648;8.640;2023-05-22T07:42:48;99995.16;;;20.68;100.00
46087;BME280;31824;49.648;8.640;2023-05-22T07:45:50;99993.31;;;20.49;100.00
46087;BME280;31824;49.648;8.640;2023-05-22T07:48:56;99993.94;;;20.44;100.00
46087;BME280;31824;49.648;8.640;2023-05-22T07:51:58;99992.78;;;20.56;100.00
46087;BME280;31824;49.648;8.640;2023-05-22T07:55:02;100000.47;;;20.50;100.00
46087;BME280;31824;49.648;8.640;2023-05-22T07:58:07;99995.91;;;20.84;100.00
46087;BME280;31824;49.648;8.640;2023-05-22T08:01:15;99998.75;;;21.06;100.00
46087;BME280;31824;49.648;8.640;2023-05-22T08:04:17;99999.81;;;21.10;100.00
46087;BME280;31824;49.648;8.640;2023-05-22T08:07:19;99999.03;;;21.13;100.00
46087;BME280;31824;49.648;8.640;2023-05-22T08:10:24;99993.63;;;21.31;100.00
46087;BME280;31824;49.648;8.640;2023-05-22T08:13:36;100001.00;;;21.36;100.00
46087;BME280;31824;49.648;8.640;2023-05-22T08:16:39;100001.38;;;21.44;100.00
46087;BME280;31824;49.648;8.640;2023-05-22T08:19:41;100001.78;;;21.14;100.00
46087;BME280;31824;49.648;8.640;2023-05-22T08:22:43;99998.53;;;21.21;100.00
46087;BME280;31824;49.648;8.640;2023-05-22T08:25:46;99996.03;;;21.44;100.00
46087;BME280;31824;49.648;8.640;2023-05-22T08:28:48;99999.75;;;21.67;100.00
46087;BME280;31824;49.648;8.640;2023-05-22T08:31:51;100003.38;;;21.89;100.00
46087;BME280;31824;49.648;8.640;2023-05-22T08:34:54;100006.53;;;22.00;100.00
46087;BME280;31824;49.648;8.640;2023-05-22T08:37:56;99999.50;;;22.02;100.00
46087;BME280;31824;49.648;8.640;2023-05-22T08:40:59;100000.88;;;22.13;100.00
46087;BME280;31824;49.648;8.640;2023-05-22T08:44:02;100002.09;;;22.21;100.00
46087;BME280;31824;49.648;8.640;2023-05-22T08:47:06;99998.53;;;22.21;100.00
46087;BME280;31824;49.648;8.640;2023-05-22T08:50:11;99997.75;;;22.45;100.00
46087;BME280;31824;49.648;8.640;2023-05-22T08:53:14;99995.41;;;22.52;100.00
46087;BME280;31824;49.648;8.640;2023-05-22T08:56:20;99984.91;;;22.58;100.00
46087;BME280;31824;49.648;8.640;2023-05-22T08:59:22;99984.94;;;22.81;100.00
46087;BME280;31824;49.648;8.640;2023-05-22T09:02:25;99988.09;;;22.93;100.00
46087;BME280;31824;49.648;8.640;2023-05-22T09:05:29;99987.41;;;22.99;100.00
46087;BME280;31824;49.648;8.640;2023-05-22T09:08:31;99986.22;;;23.14;100.00
46087;BME280;31824;49.648;8.640;2023-05-22T09:11:35;99982.59;;;23.36;100.00
46087;BME280;31824;49.648;8.640;2023-05-22T09:14:37;99978.84;;;23.08;100.00
46087;BME280;31824;49.648;8.640;2023-05-22T09:17:40;99979.50;;;23.02;100.00
46087;BME280;31824;49.648;8.640;2023-05-22T09:20:42;99973.25;;;23.24;100.00
46087;BME280;31824;49.648;8.640;2023-05-22T09:23:48;99976.38;;;23.61;100.00
46087;BME280;31824;49.648;8.640;2023-05-22T09:26:51;99981.03;;;23.67;100.00
46087;BME280;31824;49.648;8.640;2023-05-22T09:29:54;99980.41;;;23.74;100.00
46087;BME280;31824;49.648;8.640;2023-05-22T09:32:57;99977.53;;;23.43;100.00
46087;BME280;31824;49.648;8.640;2023-05-22T09:35:59;99975.53;;;23.38;100.00
46087;BME280;31824;49.648;8.640;2023-05-22T09:39:03;99971.50;;;23.51;100.00
46087;BME280;31824;49.648;8.640;2023-05-22T09:42:06;99980.25;;;23.69;100.00
46087;BME280;31824;49.648;8.640;2023-05-22T09:45:10;99987.78;;;23.81;100.00
46087;BME280;31824;49.648;8.640;2023-05-22T09:48:16;99981.13;;;23.70;100.00
46087;BME280;31824;49.648;8.640;2023-05-22T09:51:20;99980.00;;;23.63;100.00
46087;BME280;31824;49.648;8.640;2023-05-22T09:54:28;99978.50;;;23.96;100.00
46087;BME280;31824;49.648;8.640;2023-05-22T09:57:39;99986.44;;;24.46;100.00
46087;BME280;31824;49.648;8.640;2023-05-22T10:00:42;99983.00;;;23.97;100.00
46087;BME280;31824;49.648;8.640;2023-05-22T10:03:46;99982.28;;;23.76;100.00
46087;BME280;31824;49.648;8.640;2023-05-22T10:06:52;99980.53;;;24.03;100.00
46087;BME280;31824;49.648;8.640;2023-05-22T10:09:55;99980.78;;;23.85;100.00
46087;BME280;31824;49.648;8.640;2023-05-22T10:13:03;99978.56;;;23.73;100.00
46087;BME280;31824;49.648;8.640;2023-05-22T10:16:05;99979.53;;;23.75;100.00
46087;BME280;31824;49.648;8.640;2023-05-22T10:19:09;99979.91;;;23.36;100.00
46087;BME280;31824;49.648;8.640;2023-05-22T10:22:13;99983.13;;;23.75;100.00
46087;BME280;31824;49.648;8.640;2023-05-22T10:25:21;99979.97;;;23.87;100.00
46087;BME280;31824;49.648;8.640;2023-05-22T10:28:29;99974.91;;;23.95;100.00
46087;BME280;31824;49.648;8.640;2023-05-22T10:31:35;99968.06;;;23.79;100.00
46087;BME280;31824;49.648;8.640;2023-05-22T10:34:57;99965.56;;;23.85;100.00
46087;BME280;31824;49.648;8.640;2023-05-22T10:38:18;99958.81;;;23.21;100.00
46087;BME280;31824;49.648;8.640;2023-05-22T10:41:24;99964.06;;;23.18;100.00
46087;BME280;31824;49.648;8.640;2023-05-22T10:44:28;99964.16;;;23.45;100.00
46087;BME280;31824;49.648;8.640;2023-05-22T10:47:31;99966.66;;;23.40;100.00
46087;BME280;31824;49.648;8.640;2023-05-22T10:50:34;99951.91;;;23.27;100.00
46087;BME280;31824;49.648;8.640;2023-05-22T10:53:37;99959.53;;;23.65;100.00
46087;BME280;31824;49.648;8.640;2023-05-22T10:56:41;99951.09;;;24.32;100.00
46087;BME280;31824;49.648;8.640;2023-05-22T10:59:46;99949.00;;;24.23;100.00
46087;BME280;31824;49.648;8.640;2023-05-22T11:02:48;99950.97;;;24.56;100.00
46087;BME280;31824;49.648;8.640;2023-05-22T11:05:56;99948.03;;;24.75;100.00
46087;BME280;31824;49.648;8.640;2023-05-22T11:08:58;99939.28;;;25.13;100.00
46087;BME280;31824;49.648;8.640;2023-05-22T11:12:17;99936.66;;;25.45;100.00
46087;BME280;31824;49.648;8.640;2023-05-22T11:15:29;99937.19;;;25.01;100.00
46087;BME280;31824;49.648;8.640;2023-05-22T11:18:32;99934.22;;;25.24;100.00
46087;BME280;31824;49.648;8.640;2023-05-22T11:21:35;99930.91;;;25.65;100.00
46087;BME280;31824;49.648;8.640;2023-05-22T11:24:38;99931.69;;;25.60;100.00
46087;BME280;31824;49.648;8.640;2023-05-22T11:27:41;99930.50;;;25.49;100.00
46087;BME280;31824;49.648;8.640;2023-05-22T11:30:44;99929.34;;;25.73;100.00
46087;BME280;31824;49.648;8.640;2023-05-22T11:33:46;99929.81;;;25.90;100.00
46087;BME280;31824;49.648;8.640;2023-05-22T11:36:49;99917.13;;;25.52;100.00
46087;BME280;31824;49.648;8.640;2023-05-22T11:39:55;99921.75;;;25.91;100.00
46087;BME280;31824;49.648;8.640;2023-05-22T11:42:57;99922.75;;;25.95;100.00
46087;BME280;31824;49.648;8.640;2023-05-22T11:46:04;99914.56;;;25.90;100.00
46087;BME280;31824;49.648;8.640;2023-05-22T11:49:08;99918.59;;;26.06;100.00
46087;BME280;31824;49.648;8.640;2023-05-22T11:52:15;99911.88;;;26.25;100.00
46087;BME280;31824;49.648;8.640;2023-05-22T11:55:17;99906.16;;;25.78;100.00
46087;BME280;31824;49.648;8.640;2023-05-22T11:58:20;99918.97;;;26.22;100.00
46087;BME280;31824;49.648;8.640;2023-05-22T12:01:24;99905.78;;;26.34;100.00
46087;BME280;31824;49.648;8.640;2023-05-22T12:04:27;99898.25;;;26.19;100.00
46087;BME280;31824;49.648;8.640;2023-05-22T12:07:29;99896.00;;;26.76;100.00
46087;BME280;31824;49.648;8.640;2023-05-22T12:10:31;99902.22;;;26.73;100.00
46087;BME280;31824;49.648;8.640;2023-05-22T12:13:33;99903.09;;;26.34;100.00
46087;BME280;31824;49.648;8.640;2023-05-22T12:16:37;99887.91;;;26.76;100.00
46087;BME280;31824;49.648;8.640;2023-05-22T12:19:40;99884.19;;;26.71;100.00
46087;BME280;31824;49.648;8.640;2023-05-22T12:22:42;99884.69;;;26.53;100.00
46087;BME280;31824;49.648;8.640;2023-05-22T12:25:44;99888.34;;;26.96;100.00
46087;BME280;31824;49.648;8.640;2023-05-22T12:28:46;99886.91;;;27.13;100.00
46087;BME280;31824;49.648;8.640;2023-05-22T12:31:50;99883.13;;;27.04;100.00
46087;BME280;31824;49.648;8.640;2023-05-22T12:34:56;99873.38;;;27.10;100.00
46087;BME280;31824;49.648;8.640;2023-05-22T12:37:59;99875.47;;;26.83;100.00
46087;BME280;31824;49.648;8.640;2023-05-22T12:41:04;99885.34;;;27.72;100.00
46087;BME280;31824;49.648;8.640;2023-05-22T12:44:06;99879.53;;;27.49;100.00
46087;BME280;31824;49.648;8.640;2023-05-22T12:47:09;99886.72;;;27.49;100.00
46087;BME280;31824;49.648;8.640;2023-05-22T12:50:11;99882.28;;;28.03;100.00
46087;BME280;31824;49.648;8.640;2023-05-22T12:53:13;99883.06;;;27.97;100.00
46087;BME280;31824;49.648;8.640;2023-05-22T12:56:15;99870.13;;;28.31;100.00
46087;BME280;31824;49.648;8.640;2023-05-22T12:59:17;99877.81;;;28.02;100.00
46087;BME280;31824;49.648;8.640;2023-05-22T13:02:22;99882.88;;;28.40;100.00
46087;BME280;31824;49.648;8.640;2023-05-22T13:05:24;99869.75;;;28.05;100.00
46087;BME280;31824;49.648;8.640;2023-05-22T13:08:27;99865.38;;;28.13;100.00
46087;BME280;31824;49.648;8.640;2023-05-22T13:11:29;99872.59;;;28.75;100.00
46087;BME280;31824;49.648;8.640;2023-05-22T13:14:32;99877.31;;;28.90;100.00
46087;BME280;31824;49.648;8.640;2023-05-22T13:17:35;99875.38;;;28.83;100.00
46087;BME280;31824;49.648;8.640;2023-05-22T13:20:37;99864.97;;;29.16;100.00
46087;BME280;31824;49.648;8.640;2023-05-22T13:23:39;99865.38;;;28.74;100.00
46087;BME280;31824;49.648;8.640;2023-05-22T13:26:41;99857.78;;;29.18;100.00
46087;BME280;31824;49.648;8.640;2023-05-22T13:29:43;99854.53;;;28.71;100.00
46087;BME280;31824;49.648;8.640;2023-05-22T13:32:48;99853.03;;;28.96;100.00
46087;BME280;31824;49.648;8.640;2023-05-22T13:35:51;99848.44;;;29.74;100.00
46087;BME280;31824;49.648;8.640;2023-05-22T13:38:53;99851.06;;;29.61;100.00
46087;BME280;31824;49.648;8.640;2023-05-22T13:41:56;99850.34;;;29.84;100.00
46087;BME280;31824;49.648;8.640;2023-05-22T13:44:58;99847.56;;;29.75;100.00
46087;BME280;31824;49.648;8.640;2023-05-22T13:48:02;99840.13;;;30.71;100.00
46087;BME280;31824;49.648;8.640;2023-05-22T13:51:04;99853.22;;;30.01;100.00
46087;BME280;31824;49.648;8.640;2023-05-22T13:54:06;99851.50;;;29.20;100.00
46087;BME280;31824;49.648;8.640;2023-05-22T13:57:08;99849.81;;;28.59;100.00
46087;BME280;31824;49.648;8.640;2023-05-22T14:00:12;99849.13;;;29.51;100.00
46087;BME280;31824;49.648;8.640;2023-05-22T14:03:16;99846.25;;;29.31;100.00
46087;BME280;31824;49.648;8.640;2023-05-22T14:06:21;99839.91;;;29.30;100.00
46087;BME280;31824;49.648;8.640;2023-05-22T14:09:23;99842.13;;;29.72;100.00
46087;BME280;31824;49.648;8.640;2023-05-22T14:12:27;99829.56;;;29.81;100.00
46087;BME280;31824;49.648;8.640;2023-05-22T14:15:29;99817.34;;;30.41;100.00
46087;BME280;31824;49.648;8.640;2023-05-22T14:18:33;99815.16;;;29.84;100.00
46087;BME280;31824;49.648;8.640;2023-05-22T14:21:34;99813.41;;;29.00;100.00
46087;BME280;31824;49.648;8.640;2023-05-22T14:24:38;99822.81;;;29.35;100.00
46087;BME280;31824;49.648;8.640;2023-05-22T14:27:40;99828.06;;;29.22;100.00
46087;BME280;31824;49.648;8.640;2023-05-22T14:30:42;99835.06;;;29.00;100.00
46087;BME280;31824;49.648;8.640;2023-05-22T14:33:46;99831.44;;;29.87;100.00
46087;BME280;31824;49.648;8.640;2023-05-22T14:36:47;99838.22;;;30.51;100.00
46087;BME280;31824;49.648;8.640;2023-05-22T14:39:49;99836.00;;;29.94;100.00
46087;BME280;31824;49.648;8.640;2023-05-22T14:42:51;99836.28;;;30.33;100.00
46087;BME280;31824;49.648;8.640;2023-05-22T14:45:55;99828.91;;;30.10;100.00
46087;BME280;31824;49.648;8.640;2023-05-22T14:49:00;99831.31;;;29.76;100.00
46087;BME280;31824;49.648;8.640;2023-05-22T14:52:02;99820.81;;;30.15;100.00
46087;BME280;31824;49.648;8.640;2023-05-22T14:55:09;99811.22;;;29.45;100.00
46087;BME280;31824;49.648;8.640;2023-05-22T14:58:11;99822.50;;;29.07;100.00
46087;BME280;31824;49.648;8.640;2023-05-22T15:01:13;99807.97;;;28.29;100.00
46087;BME280;31824;49.648;8.640;2023-05-22T15:04:17;99814.50;;;27.86;100.00
46087;BME280;31824;49.648;8.640;2023-05-22T15:07:19;99805.34;;;27.76;100.00
46087;BME280;31824;49.648;8.640;2023-05-22T15:10:27;99809.28;;;27.98;100.00
46087;BME280;31824;49.648;8.640;2023-05-22T15:13:29;99814.25;;;27.70;100.00
46087;BME280;31824;49.648;8.640;2023-05-22T15:16:31;99827.41;;;27.50;100.00
46087;BME280;31824;49.648;8.640;2023-05-22T15:19:35;99825.56;;;27.49;100.00
46087;BME280;31824;49.648;8.640;2023-05-22T15:22:37;99838.59;;;27.24;100.00
46087;BME280;31824;49.648;8.640;2023-05-22T15:25:39;99834.22;;;27.31;100.00
46087;BME280;31824;49.648;8.640;2023-05-22T15:28:43;99839.19;;;26.67;100.00
46087;BME280;31824;49.648;8.640;2023-05-22T15:31:45;99841.31;;;26.82;100.00
46087;BME280;31824;49.648;8.640;2023-05-22T15:34:50;99856.22;;;27.07;100.00
46087;BME280;31824;49.648;8.640;2023-05-22T15:37:52;99871.13;;;27.34;100.00
46087;BME280;31824;49.648;8.640;2023-05-22T15:40:54;99875.66;;;26.51;100.00
46087;BME280;31824;49.648;8.640;2023-05-22T15:43:56;99864.63;;;25.67;100.00
46087;BME280;31824;49.648;8.640;2023-05-22T15:46:58;99869.06;;;25.01;100.00
46087;BME280;31824;49.648;8.640;2023-05-22T15:50:02;99861.16;;;24.75;100.00
46087;BME280;31824;49.648;8.640;2023-05-22T15:53:07;99856.72;;;24.75;100.00
46087;BME280;31824;49.648;8.640;2023-05-22T15:56:09;99856.66;;;24.74;100.00
46087;BME280;31824;49.648;8.640;2023-05-22T15:59:11;99837.16;;;24.23;100.00
46087;BME280;31824;49.648;8.640;2023-05-22T16:02:13;99838.44;;;24.64;100.00
46087;BME280;31824;49.648;8.640;2023-05-22T16:05:16;99834.09;;;24.99;100.00